sensor_id;sensor_type;location;lat;lon;timestamp;P1;durP1;ratioP1;P2;durP2;ratioP2
21843;SDS011;11084;52.482;9.108;2023-04-01T00:01:00;2.40;;;0.70;;
21843;SDS011;11084;52.482;9.108;2023-04-01T00:03:29;0.40;;;0.40;;
21843;SDS011;11084;52.482;9.108;2023-04-01T00:05:56;3.83;;;0.90;;
21843;SDS011;11084;52.482;9.108;2023-04-01T00:08:25;1.47;;;0.77;;
21843;SDS011;11084;52.482;9.108;2023-04-01T00:10:52;4.80;;;0.93;;
21843;SDS011;11084;52.482;9.108;2023-04-01T00:13:19;1.37;;;0.80;;
21843;SDS011;11084;52.482;9.108;2023-04-01T00:15:46;0.80;;;0.70;;
21843;SDS011;11084;52.482;9.108;2023-04-01T00:18:12;1.33;;;0.77;;
21843;SDS011;11084;52.482;9.108;2023-04-01T00:20:39;0.40;;;0.40;;
21843;SDS011;11084;52.482;9.108;2023-04-01T00:23:12;3.20;;;0.50;;
21843;SDS011;11084;52.482;9.108;2023-04-01T00:25:42;0.50;;;0.50;;
21843;SDS011;11084;52.482;9.108;2023-04-01T00:28:17;1.40;;;0.83;;
21843;SDS011;11084;52.482;9.108;2023-04-01T00:30:45;2.03;;;0.70;;
21843;SDS011;11084;52.482;9.108;2023-04-01T00:33:12;2.13;;;0.53;;
21843;SDS011;11084;52.482;9.108;2023-04-01T00:35:38;1.07;;;0.63;;
21843;SDS011;11084;52.482;9.108;2023-04-01T00:38:04;1.07;;;0.70;;
21843;SDS011;11084;52.482;9.108;2023-04-01T00:40:36;0.90;;;0.53;;
21843;SDS011;11084;52.482;9.108;2023-04-01T00:43:11;1.07;;;0.53;;
21843;SDS011;11084;52.482;9.108;2023-04-01T00:45:47;3.40;;;0.77;;
21843;SDS011;11084;52.482;9.108;2023-04-01T00:48:18;1.30;;;0.83;;
21843;SDS011;11084;52.482;9.108;2023-04-01T00:51:01;0.50;;;0.50;;
21843;SDS011;11084;52.482;9.108;2023-04-01T00:53:43;2.40;;;0.77;;
21843;SDS011;11084;52.482;9.108;2023-04-01T00:56:16;6.30;;;0.87;;
21843;SDS011;11084;52.482;9.108;2023-04-01T00:58:59;0.70;;;0.70;;
21843;SDS011;11084;52.482;9.108;2023-04-01T01:01:30;2.53;;;0.63;;
21843;SDS011;11084;52.482;9.108;2023-04-01T01:03:57;0.80;;;0.50;;
21843;SDS011;11084;52.482;9.108;2023-04-01T01:06:33;0.87;;;0.50;;
21843;SDS011;11084;52.482;9.108;2023-04-01T01:12:11;0.70;;;0.57;;
21843;SDS011;11084;52.482;9.108;2023-04-01T01:14:55;0.80;;;0.67;;
21843;SDS011;11084;52.482;9.108;2023-04-01T01:17:33;5.20;;;0.83;;
21843;SDS011;11084;52.482;9.108;2023-04-01T01:32:48;0.67;;;0.67;;
21843;SDS011;11084;52.482;9.108;2023-04-01T01:38:21;0.80;;;0.80;;
21843;SDS011;11084;52.482;9.108;2023-04-01T01:41:04;0.93;;;0.70;;
21843;SDS011;11084;52.482;9.108;2023-04-01T01:43:35;3.97;;;0.70;;
21843;SDS011;11084;52.482;9.108;2023-04-01T01:46:06;0.50;;;0.50;;
21843;SDS011;11084;52.482;9.108;2023-04-01T01:48:38;1.13;;;0.73;;
21843;SDS011;11084;52.482;9.108;2023-04-01T01:51:11;3.30;;;0.57;;
21843;SDS011;11084;52.482;9.108;2023-04-01T01:53:37;2.63;;;0.60;;
21843;SDS011;11084;52.482;9.108;2023-04-01T01:56:03;1.40;;;0.83;;
21843;SDS011;11084;52.482;9.108;2023-04-01T01:58:36;1.20;;;0.83;;
21843;SDS011;11084;52.482;9.108;2023-04-01T02:01:12;2.13;;;0.63;;
21843;SDS011;11084;52.482;9.108;2023-04-01T02:03:43;2.67;;;0.77;;
21843;SDS011;11084;52.482;9.108;2023-04-01T02:06:11;5.07;;;0.80;;
21843;SDS011;11084;52.482;9.108;2023-04-01T02:08:47;0.33;;;0.33;;
21843;SDS011;11084;52.482;9.108;2023-04-01T02:11:29;0.50;;;0.50;;
21843;SDS011;11084;52.482;9.108;2023-04-01T02:19:25;0.73;;;0.67;;
21843;SDS011;11084;52.482;9.108;2023-04-01T02:21:59;0.77;;;0.50;;
21843;SDS011;11084;52.482;9.108;2023-04-01T02:24:30;2.00;;;0.50;;
21843;SDS011;11084;52.482;9.108;2023-04-01T02:26:58;0.43;;;0.43;;
21843;SDS011;11084;52.482;9.108;2023-04-01T02:29:25;2.43;;;0.57;;
21843;SDS011;11084;52.482;9.108;2023-04-01T02:31:52;0.30;;;0.30;;
21843;SDS011;11084;52.482;9.108;2023-04-01T02:34:20;0.30;;;0.30;;
21843;SDS011;11084;52.482;9.108;2023-04-01T02:36:48;1.20;;;0.60;;
21843;SDS011;11084;52.482;9.108;2023-04-01T02:39:16;0.60;;;0.60;;
21843;SDS011;11084;52.482;9.108;2023-04-01T02:41:43;1.00;;;0.50;;
21843;SDS011;11084;52.482;9.108;2023-04-01T02:44:12;0.43;;;0.43;;
21843;SDS011;11084;52.482;9.108;2023-04-01T02:46:40;2.27;;;0.50;;
21843;SDS011;11084;52.482;9.108;2023-04-01T02:49:06;0.50;;;0.43;;
21843;SDS011;11084;52.482;9.108;2023-04-01T02:51:33;2.67;;;0.40;;
21843;SDS011;11084;52.482;9.108;2023-04-01T02:53:59;0.47;;;0.47;;
21843;SDS011;11084;52.482;9.108;2023-04-01T02:58:56;0.73;;;0.50;;
21843;SDS011;11084;52.482;9.108;2023-04-01T03:01:22;0.40;;;0.40;;
21843;SDS011;11084;52.482;9.108;2023-04-01T03:03:48;2.60;;;0.70;;
21843;SDS011;11084;52.482;9.108;2023-04-01T03:06:15;0.83;;;0.50;;
21843;SDS011;11084;52.482;9.108;2023-04-01T03:08:42;1.03;;;0.50;;
21843;SDS011;11084;52.482;9.108;2023-04-01T03:11:09;0.40;;;0.40;;
21843;SDS011;11084;52.482;9.108;2023-04-01T03:13:37;0.40;;;0.40;;
21843;SDS011;11084;52.482;9.108;2023-04-01T03:16:03;0.97;;;0.63;;
21843;SDS011;11084;52.482;9.108;2023-04-01T03:18:30;0.80;;;0.77;;
21843;SDS011;11084;52.482;9.108;2023-04-01T03:20:56;0.63;;;0.60;;
21843;SDS011;11084;52.482;9.108;2023-04-01T03:23:22;0.40;;;0.40;;
21843;SDS011;11084;52.482;9.108;2023-04-01T03:25:49;0.50;;;0.50;;
21843;SDS011;11084;52.482;9.108;2023-04-01T03:28:16;0.60;;;0.57;;
21843;SDS011;11084;52.482;9.108;2023-04-01T03:30:42;0.57;;;0.57;;
21843;SDS011;11084;52.482;9.108;2023-04-01T03:33:09;0.57;;;0.53;;
21843;SDS011;11084;52.482;9.108;2023-04-01T03:35:35;1.40;;;0.53;;
21843;SDS011;11084;52.482;9.108;2023-04-01T03:38:01;0.30;;;0.30;;
21843;SDS011;11084;52.482;9.108;2023-04-01T03:40:28;0.30;;;0.30;;
21843;SDS011;11084;52.482;9.108;2023-04-01T03:42:54;0.40;;;0.40;;
21843;SDS011;11084;52.482;9.108;2023-04-01T03:45:21;2.40;;;0.70;;
21843;SDS011;11084;52.482;9.108;2023-04-01T03:47:47;0.53;;;0.50;;
21843;SDS011;11084;52.482;9.108;2023-04-01T03:50:14;0.30;;;0.30;;
21843;SDS011;11084;52.482;9.108;2023-04-01T03:52:42;0.47;;;0.47;;
21843;SDS011;11084;52.482;9.108;2023-04-01T03:55:08;2.10;;;1.00;;
21843;SDS011;11084;52.482;9.108;2023-04-01T03:57:35;1.40;;;0.40;;
21843;SDS011;11084;52.482;9.108;2023-04-01T04:00:12;0.50;;;0.50;;
21843;SDS011;11084;52.482;9.108;2023-04-01T04:02:43;0.87;;;0.50;;
21843;SDS011;11084;52.482;9.108;2023-04-01T04:05:13;2.07;;;0.80;;
21843;SDS011;11084;52.482;9.108;2023-04-01T04:07:39;0.33;;;0.33;;
21843;SDS011;11084;52.482;9.108;2023-04-01T04:10:07;0.33;;;0.33;;
21843;SDS011;11084;52.482;9.108;2023-04-01T04:12:34;0.30;;;0.30;;
21843;SDS011;11084;52.482;9.108;2023-04-01T04:15:01;3.93;;;0.50;;
21843;SDS011;11084;52.482;9.108;2023-04-01T04:17:28;0.30;;;0.30;;
21843;SDS011;11084;52.482;9.108;2023-04-01T04:19:54;0.47;;;0.47;;
21843;SDS011;11084;52.482;9.108;2023-04-01T04:22:20;0.37;;;0.37;;
21843;SDS011;11084;52.482;9.108;2023-04-01T04:24:46;0.37;;;0.37;;
21843;SDS011;11084;52.482;9.108;2023-04-01T04:27:12;0.40;;;0.40;;
21843;SDS011;11084;52.482;9.108;2023-04-01T04:29:57;0.93;;;0.60;;
21843;SDS011;11084;52.482;9.108;2023-04-01T04:32:24;0.30;;;0.30;;
21843;SDS011;11084;52.482;9.108;2023-04-01T04:34:56;0.30;;;0.30;;
21843;SDS011;11084;52.482;9.108;2023-04-01T04:37:26;0.33;;;0.33;;
21843;SDS011;11084;52.482;9.108;2023-04-01T04:39:59;1.50;;;0.50;;
21843;SDS011;11084;52.482;9.108;2023-04-01T04:42:32;0.40;;;0.40;;
21843;SDS011;11084;52.482;9.108;2023-04-01T04:45:04;0.47;;;0.40;;
21843;SDS011;11084;52.482;9.108;2023-04-01T04:47:38;0.40;;;0.40;;
21843;SDS011;11084;52.482;9.108;2023-04-01T04:50:05;1.27;;;0.40;;
21843;SDS011;11084;52.482;9.108;2023-04-01T04:52:32;0.40;;;0.40;;
21843;SDS011;11084;52.482;9.108;2023-04-01T04:54:58;7.33;;;0.40;;
21843;SDS011;11084;52.482;9.108;2023-04-01T04:57:24;0.30;;;0.30;;
21843;SDS011;11084;52.482;9.108;2023-04-01T04:59:54;0.60;;;0.47;;
21843;SDS011;11084;52.482;9.108;2023-04-01T05:02:36;0.30;;;0.30;;
21843;SDS011;11084;52.482;9.108;2023-04-01T05:05:02;0.40;;;0.40;;
21843;SDS011;11084;52.482;9.108;2023-04-01T05:07:29;5.00;;;0.57;;
21843;SDS011;11084;52.482;9.108;2023-04-01T05:09:55;2.03;;;0.50;;
21843;SDS011;11084;52.482;9.108;2023-04-01T05:12:21;1.13;;;0.40;;
21843;SDS011;11084;52.482;9.108;2023-04-01T05:14:59;0.40;;;0.40;;
21843;SDS011;11084;52.482;9.108;2023-04-01T05:17:26;1.23;;;0.50;;
21843;SDS011;11084;52.482;9.108;2023-04-01T05:19:52;1.93;;;0.50;;
21843;SDS011;11084;52.482;9.108;2023-04-01T05:22:19;0.47;;;0.47;;
21843;SDS011;11084;52.482;9.108;2023-04-01T05:24:45;0.30;;;0.30;;
21843;SDS011;11084;52.482;9.108;2023-04-01T05:27:11;0.30;;;0.30;;
21843;SDS011;11084;52.482;9.108;2023-04-01T05:29:39;0.70;;;0.50;;
21843;SDS011;11084;52.482;9.108;2023-04-01T05:32:09;3.70;;;0.30;;
21843;SDS011;11084;52.482;9.108;2023-04-01T05:34:35;0.40;;;0.40;;
21843;SDS011;11084;52.482;9.108;2023-04-01T05:37:01;1.13;;;0.67;;
21843;SDS011;11084;52.482;9.108;2023-04-01T05:39:27;0.70;;;0.57;;
21843;SDS011;11084;52.482;9.108;2023-04-01T05:41:54;0.33;;;0.33;;
21843;SDS011;11084;52.482;9.108;2023-04-01T05:44:20;2.77;;;0.83;;
21843;SDS011;11084;52.482;9.108;2023-04-01T05:47:01;0.80;;;0.37;;
21843;SDS011;11084;52.482;9.108;2023-04-01T05:49:29;2.20;;;0.50;;
21843;SDS011;11084;52.482;9.108;2023-04-01T05:51:56;0.30;;;0.30;;
21843;SDS011;11084;52.482;9.108;2023-04-01T05:54:22;0.30;;;0.30;;
21843;SDS011;11084;52.482;9.108;2023-04-01T05:56:49;1.13;;;0.40;;
21843;SDS011;11084;52.482;9.108;2023-04-01T05:59:16;0.40;;;0.40;;
21843;SDS011;11084;52.482;9.108;2023-04-01T06:01:42;0.30;;;0.30;;
21843;SDS011;11084;52.482;9.108;2023-04-01T06:04:16;0.70;;;0.40;;
21843;SDS011;11084;52.482;9.108;2023-04-01T06:06:44;0.50;;;0.50;;
21843;SDS011;11084;52.482;9.108;2023-04-01T06:09:16;0.90;;;0.50;;
21843;SDS011;11084;52.482;9.108;2023-04-01T06:23:37;1.47;;;0.60;;
21843;SDS011;11084;52.482;9.108;2023-04-01T06:26:37;1.43;;;0.40;;
21843;SDS011;11084;52.482;9.108;2023-04-01T06:32:27;0.33;;;0.33;;
21843;SDS011;11084;52.482;9.108;2023-04-01T06:35:31;0.93;;;0.40;;
21843;SDS011;11084;52.482;9.108;2023-04-01T06:41:07;0.57;;;0.40;;
21843;SDS011;11084;52.482;9.108;2023-04-01T06:47:33;0.40;;;0.40;;
21843;SDS011;11084;52.482;9.108;2023-04-01T06:54:14;0.27;;;0.27;;
21843;SDS011;11084;52.482;9.108;2023-04-01T06:57:30;0.53;;;0.53;;
21843;SDS011;11084;52.482;9.108;2023-04-01T07:00:10;0.43;;;0.40;;
21843;SDS011;11084;52.482;9.108;2023-04-01T07:02:49;0.40;;;0.40;;
21843;SDS011;11084;52.482;9.108;2023-04-01T07:05:23;4.17;;;0.97;;
21843;SDS011;11084;52.482;9.108;2023-04-01T07:07:52;0.87;;;0.50;;
21843;SDS011;11084;52.482;9.108;2023-04-01T07:10:28;0.40;;;0.40;;
21843;SDS011;11084;52.482;9.108;2023-04-01T07:13:45;1.50;;;0.70;;
21843;SDS011;11084;52.482;9.108;2023-04-01T07:16:19;0.50;;;0.50;;
21843;SDS011;11084;52.482;9.108;2023-04-01T07:28:01;1.07;;;0.67;;
21843;SDS011;11084;52.482;9.108;2023-04-01T07:33:42;0.40;;;0.40;;
21843;SDS011;11084;52.482;9.108;2023-04-01T07:42:49;0.73;;;0.40;;
21843;SDS011;11084;52.482;9.108;2023-04-01T07:46:12;0.90;;;0.40;;
21843;SDS011;11084;52.482;9.108;2023-04-01T07:52:56;0.40;;;0.40;;
21843;SDS011;11084;52.482;9.108;2023-04-01T07:55:11;0.40;;;0.40;;
21843;SDS011;11084;52.482;9.108;2023-04-01T08:07:18;0.53;;;0.40;;
21843;SDS011;11084;52.482;9.108;2023-04-01T08:13:38;4.70;;;0.80;;
21843;SDS011;11084;52.482;9.108;2023-04-01T08:19:47;0.30;;;0.30;;
21843;SDS011;11084;52.482;9.108;2023-04-01T08:22:43;0.40;;;0.40;;
21843;SDS011;11084;52.482;9.108;2023-04-01T08:25:29;0.30;;;0.30;;
21843;SDS011;11084;52.482;9.108;2023-04-01T08:33:15;3.60;;;0.60;;
21843;SDS011;11084;52.482;9.108;2023-04-01T08:36:06;0.30;;;0.30;;
21843;SDS011;11084;52.482;9.108;2023-04-01T08:38:45;0.30;;;0.30;;
21843;SDS011;11084;52.482;9.108;2023-04-01T08:50:50;0.40;;;0.40;;
21843;SDS011;11084;52.482;9.108;2023-04-01T08:57:24;0.57;;;0.50;;
21843;SDS011;11084;52.482;9.108;2023-04-01T09:00:53;0.30;;;0.30;;
21843;SDS011;11084;52.482;9.108;2023-04-01T09:06:34;1.03;;;0.37;;
21843;SDS011;11084;52.482;9.108;2023-04-01T09:34:54;1.70;;;0.37;;
21843;SDS011;11084;52.482;9.108;2023-04-01T10:02:09;3.70;;;0.40;;
21843;SDS011;11084;52.482;9.108;2023-04-01T10:14:22;0.40;;;0.40;;
21843;SDS011;11084;52.482;9.108;2023-04-01T10:17:08;0.33;;;0.33;;
21843;SDS011;11084;52.482;9.108;2023-04-01T10:20:18;0.50;;;0.50;;
21843;SDS011;11084;52.482;9.108;2023-04-01T10:23:18;0.30;;;0.30;;
21843;SDS011;11084;52.482;9.108;2023-04-01T10:42:11;0.40;;;0.40;;
21843;SDS011;11084;52.482;9.108;2023-04-01T11:06:46;1.50;;;0.43;;
21843;SDS011;11084;52.482;9.108;2023-04-01T11:30:44;0.30;;;0.30;;
21843;SDS011;11084;52.482;9.108;2023-04-01T11:52:50;0.40;;;0.40;;
21843;SDS011;11084;52.482;9.108;2023-04-01T12:01:06;0.30;;;0.30;;
21843;SDS011;11084;52.482;9.108;2023-04-01T12:12:32;0.97;;;0.40;;
21843;SDS011;11084;52.482;9.108;2023-04-01T12:15:23;0.40;;;0.40;;
21843;SDS011;11084;52.482;9.108;2023-04-01T12:33:19;0.40;;;0.40;;
21843;SDS011;11084;52.482;9.108;2023-04-01T12:36:30;0.40;;;0.40;;
21843;SDS011;11084;52.482;9.108;2023-04-01T12:41:46;0.57;;;0.57;;
21843;SDS011;11084;52.482;9.108;2023-04-01T12:44:45;0.60;;;0.60;;
21843;SDS011;11084;52.482;9.108;2023-04-01T12:47:30;0.60;;;0.33;;
21843;SDS011;11084;52.482;9.108;2023-04-01T12:53:23;0.63;;;0.50;;
21843;SDS011;11084;52.482;9.108;2023-04-01T13:14:20;0.50;;;0.50;;
21843;SDS011;11084;52.482;9.108;2023-04-01T13:30:58;0.43;;;0.43;;
21843;SDS011;11084;52.482;9.108;2023-04-01T13:34:09;1.30;;;0.80;;
21843;SDS011;11084;52.482;9.108;2023-04-01T13:40:39;0.70;;;0.60;;
21843;SDS011;11084;52.482;9.108;2023-04-01T13:43:17;0.50;;;0.50;;
21843;SDS011;11084;52.482;9.108;2023-04-01T13:52:20;0.70;;;0.70;;
21843;SDS011;11084;52.482;9.108;2023-04-01T13:58:14;2.10;;;0.40;;
21843;SDS011;11084;52.482;9.108;2023-04-01T14:01:05;0.30;;;0.30;;
21843;SDS011;11084;52.482;9.108;2023-04-01T14:12:26;0.30;;;0.30;;
21843;SDS011;11084;52.482;9.108;2023-04-01T14:15:20;0.70;;;0.27;;
21843;SDS011;11084;52.482;9.108;2023-04-01T14:23:36;0.30;;;0.30;;
21843;SDS011;11084;52.482;9.108;2023-04-01T14:26:30;0.30;;;0.30;;
21843;SDS011;11084;52.482;9.108;2023-04-01T14:32:40;0.50;;;0.50;;
21843;SDS011;11084;52.482;9.108;2023-04-01T14:36:08;0.40;;;0.40;;
21843;SDS011;11084;52.482;9.108;2023-04-01T14:41:45;0.30;;;0.30;;
21843;SDS011;11084;52.482;9.108;2023-04-01T14:46:53;0.40;;;0.40;;
21843;SDS011;11084;52.482;9.108;2023-04-01T14:49:53;0.30;;;0.30;;
21843;SDS011;11084;52.482;9.108;2023-04-01T14:52:35;0.40;;;0.40;;
21843;SDS011;11084;52.482;9.108;2023-04-01T14:55:18;0.43;;;0.43;;
21843;SDS011;11084;52.482;9.108;2023-04-01T14:58:04;0.30;;;0.30;;
21843;SDS011;11084;52.482;9.108;2023-04-01T15:03:30;0.40;;;0.40;;
21843;SDS011;11084;52.482;9.108;2023-04-01T15:06:27;0.30;;;0.30;;
21843;SDS011;11084;52.482;9.108;2023-04-01T15:09:05;0.40;;;0.40;;
21843;SDS011;11084;52.482;9.108;2023-04-01T15:11:48;0.73;;;0.40;;
21843;SDS011;11084;52.482;9.108;2023-04-01T15:36:02;0.47;;;0.47;;
21843;SDS011;11084;52.482;9.108;2023-04-01T15:43:52;0.30;;;0.30;;
21843;SDS011;11084;52.482;9.108;2023-04-01T15:58:06;0.37;;;0.37;;
21843;SDS011;11084;52.482;9.108;2023-04-01T16:00:55;0.37;;;0.37;;
21843;SDS011;11084;52.482;9.108;2023-04-01T16:19:16;0.40;;;0.40;;
21843;SDS011;11084;52.482;9.108;2023-04-01T16:22:44;0.40;;;0.40;;
21843;SDS011;11084;52.482;9.108;2023-04-01T16:25:41;0.67;;;0.57;;
21843;SDS011;11084;52.482;9.108;2023-04-01T16:28:30;0.40;;;0.40;;
21843;SDS011;11084;52.482;9.108;2023-04-01T16:31:38;0.30;;;0.30;;
21843;SDS011;11084;52.482;9.108;2023-04-01T16:34:27;0.30;;;0.30;;
21843;SDS011;11084;52.482;9.108;2023-04-01T16:37:09;0.40;;;0.40;;
21843;SDS011;11084;52.482;9.108;2023-04-01T16:39:47;0.40;;;0.40;;
21843;SDS011;11084;52.482;9.108;2023-04-01T16:42:31;0.40;;;0.40;;
21843;SDS011;11084;52.482;9.108;2023-04-01T16:48:11;0.37;;;0.37;;
21843;SDS011;11084;52.482;9.108;2023-04-01T16:56:16;0.30;;;0.30;;
21843;SDS011;11084;52.482;9.108;2023-04-01T17:01:41;0.40;;;0.40;;
21843;SDS011;11084;52.482;9.108;2023-04-01T17:19:26;0.53;;;0.30;;
21843;SDS011;11084;52.482;9.108;2023-04-01T17:21:46;0.30;;;0.30;;
21843;SDS011;11084;52.482;9.108;2023-04-01T17:24:58;0.33;;;0.33;;
21843;SDS011;11084;52.482;9.108;2023-04-01T17:52:30;0.40;;;0.40;;
21843;SDS011;11084;52.482;9.108;2023-04-01T18:01:15;0.50;;;0.50;;
21843;SDS011;11084;52.482;9.108;2023-04-01T18:10:22;1.03;;;0.60;;
21843;SDS011;11084;52.482;9.108;2023-04-01T18:19:15;0.33;;;0.33;;
21843;SDS011;11084;52.482;9.108;2023-04-01T18:21:50;0.50;;;0.50;;
21843;SDS011;11084;52.482;9.108;2023-04-01T18:24:33;0.37;;;0.37;;
21843;SDS011;11084;52.482;9.108;2023-04-01T18:27:59;0.60;;;0.60;;
21843;SDS011;11084;52.482;9.108;2023-04-01T18:45:23;0.67;;;0.67;;
21843;SDS011;11084;52.482;9.108;2023-04-01T18:51:14;0.50;;;0.50;;
21843;SDS011;11084;52.482;9.108;2023-04-01T18:54:00;0.30;;;0.30;;
21843;SDS011;11084;52.482;9.108;2023-04-01T18:56:39;0.40;;;0.40;;
21843;SDS011;11084;52.482;9.108;2023-04-01T18:59:20;0.60;;;0.60;;
21843;SDS011;11084;52.482;9.108;2023-04-01T19:02:28;0.40;;;0.40;;
21843;SDS011;11084;52.482;9.108;2023-04-01T19:07:52;2.00;;;1.20;;
21843;SDS011;11084;52.482;9.108;2023-04-01T19:15:57;0.67;;;0.67;;
21843;SDS011;11084;52.482;9.108;2023-04-01T19:42:21;0.60;;;0.60;;
21843;SDS011;11084;52.482;9.108;2023-04-01T19:56:55;0.70;;;0.70;;
21843;SDS011;11084;52.482;9.108;2023-04-01T20:08:38;0.63;;;0.60;;
21843;SDS011;11084;52.482;9.108;2023-04-01T20:14:57;0.83;;;0.83;;
21843;SDS011;11084;52.482;9.108;2023-04-01T20:33:39;2.77;;;1.60;;
21843;SDS011;11084;52.482;9.108;2023-04-01T20:41:52;1.27;;;0.97;;
21843;SDS011;11084;52.482;9.108;2023-04-01T20:47:39;1.10;;;1.00;;
21843;SDS011;11084;52.482;9.108;2023-04-01T20:56:28;1.07;;;0.90;;
21843;SDS011;11084;52.482;9.108;2023-04-01T20:59:40;1.40;;;1.30;;
21843;SDS011;11084;52.482;9.108;2023-04-01T21:02:41;1.20;;;1.10;;
21843;SDS011;11084;52.482;9.108;2023-04-01T21:20:44;0.70;;;0.70;;
21843;SDS011;11084;52.482;9.108;2023-04-01T21:31:45;1.23;;;1.13;;
21843;SDS011;11084;52.482;9.108;2023-04-01T21:34:50;0.93;;;0.93;;
21843;SDS011;11084;52.482;9.108;2023-04-01T21:54:21;1.47;;;1.37;;
21843;SDS011;11084;52.482;9.108;2023-04-01T22:17:21;2.43;;;1.53;;
21843;SDS011;11084;52.482;9.108;2023-04-01T22:20:16;1.63;;;1.53;;
21843;SDS011;11084;52.482;9.108;2023-04-01T22:25:41;3.07;;;1.30;;
21843;SDS011;11084;52.482;9.108;2023-04-01T22:28:46;1.70;;;1.10;;
21843;SDS011;11084;52.482;9.108;2023-04-01T22:31:19;2.70;;;0.90;;
21843;SDS011;11084;52.482;9.108;2023-04-01T22:33:58;1.33;;;1.10;;
21843;SDS011;11084;52.482;9.108;2023-04-01T22:36:50;1.50;;;1.40;;
21843;SDS011;11084;52.482;9.108;2023-04-01T22:44:43;2.93;;;1.60;;
21843;SDS011;11084;52.482;9.108;2023-04-01T22:52:49;2.23;;;1.40;;
21843;SDS011;11084;52.482;9.108;2023-04-01T22:55:27;2.60;;;2.07;;
21843;SDS011;11084;52.482;9.108;2023-04-01T22:58:07;2.23;;;1.40;;
21843;SDS011;11084;52.482;9.108;2023-04-01T23:01:06;2.63;;;1.37;;
21843;SDS011;11084;52.482;9.108;2023-04-01T23:03:40;1.57;;;1.17;;
21843;SDS011;11084;52.482;9.108;2023-04-01T23:06:15;5.40;;;2.53;;
21843;SDS011;11084;52.482;9.108;2023-04-01T23:11:48;5.90;;;1.40;;
21843;SDS011;11084;52.482;9.108;2023-04-01T23:14:41;6.13;;;2.20;;
21843;SDS011;11084;52.482;9.108;2023-04-01T23:20:31;1.60;;;1.33;;
21843;SDS011;11084;52.482;9.108;2023-04-01T23:29:01;1.53;;;1.43;;
21843;SDS011;11084;52.482;9.108;2023-04-01T23:31:35;1.80;;;1.40;;
21843;SDS011;11084;52.482;9.108;2023-04-01T23:36:40;2.07;;;1.13;;
21843;SDS011;11084;52.482;9.108;2023-04-01T23:42:03;1.97;;;1.33;;
21843;SDS011;11084;52.482;9.108;2023-04-01T23:44:31;1.13;;;1.03;;
21843;SDS011;11084;52.482;9.108;2023-04-01T23:46:58;1.67;;;1.53;;
21843;SDS011;11084;52.482;9.108;2023-04-01T23:49:33;3.40;;;1.80;;
21843;SDS011;11084;52.482;9.108;2023-04-01T23:52:25;1.37;;;1.27;;
